M I D A S
Marine Information and Data Acquisition System
Tripno 629 of the Zeeleeuw from 2004-01-05 07:40:16 to 2004-01-05 13:56:09
Back to CruiseResearch ActivitiesStationsMapUnderway DataData graphs

EquipmentUnitsComment
TimeDGPSUTC
LatitudeDGPSDM.mWGS84
LongitudeDGPSDM.mWGS84
TemperatureSBE03/SBE38deg celciusITS90
ConductivitySBE21S/mITS90
SalinitySBE21 Practical Salinity Units
ChlorophylAChelsea fluorimeterg/lCalibrated in Aceton
Missing or incorrect values are displayed as -999
Sea surface data collected by the RV Zeeleeuw from 2004-01-05 07:40:16 to 2004-01-05 13:56:09
Time Latitude Longitude Temperature Conductivity Salinity ChlorophylA
2004-01-05 07:41:20 51°13.601 2°56.078 5.45583 3.051895 31.052566 1.342443
2004-01-05 07:42:20 51°13.626 2°55.998 5.27281 2.837067 28.639927 6.870785
2004-01-05 07:43:18 51°13.655 2°55.902 5.220731 2.758885 27.90657 3.870648
2004-01-05 07:44:20 51°13.686 2°55.795 5.254378 2.841909 28.830244 2.690819
2004-01-05 07:45:20 51°13.699 2°55.776 5.141444 2.833596 28.743267 2.421144
2004-01-05 07:46:20 51°13.694 2°55.766 5.124694 2.616127 26.422321 4.747093
2004-01-05 07:47:18 51°13.718 2°55.747 5.221237 2.83086 28.724625 2.724529
2004-01-05 07:48:20 51°13.789 2°55.672 5.22437 2.845171 28.874985 3.263879
2004-01-05 07:49:20 51°13.892 2°55.587 5.210219 2.797712 28.358629 4.308871
2004-01-05 07:50:20 51°14.01 2°55.502 5.159758 2.768145 28.043986 2.994204
2004-01-05 07:51:20 51°14.129 2°55.414 5.098675 2.58636 26.075783 2.724529
2004-01-05 07:52:20 51°14.26 2°55.278 5.111382 2.695023 27.298517 3.668392
2004-01-05 07:53:19 51°14.361 2°55.06 4.890485 2.471416 24.928336 3.735811
2004-01-05 07:54:20 51°14.398 2°54.744 5.242255 2.563117 25.893379 2.724529
2004-01-05 07:55:20 51°14.331 2°54.424 5.359849 3.079058 31.433939 2.08405
2004-01-05 07:56:18 51°14.232 2°54.132 5.407379 3.133596 31.990686 1.746956
2004-01-05 07:57:20 51°14.125 2°53.82 5.436998 3.191194 32.597549 1.645828
2004-01-05 07:58:20 51°14.023 2°53.515 5.451299 3.206989 32.759365 1.5447
2004-01-05 07:59:19 51°13.922 2°53.213 5.471637 3.200776 32.671333 1.376153
2004-01-05 08:00:18 51°13.816 2°52.902 5.495993 3.177293 32.387576 1.342443
2004-01-05 08:01:18 51°13.707 2°52.572 5.514104 3.161287 32.185386 1.207606
2004-01-05 08:02:19 51°13.592 2°52.236 5.53769 3.143071 31.955432 1.173896
2004-01-05 08:03:18 51°13.484 2°51.91 5.546639 3.133489 31.840255 1.106477
2004-01-05 08:04:20 51°13.37 2°51.568 5.564433 3.235842 32.981214 1.039059
2004-01-05 08:05:19 51°13.261 2°51.243 5.570112 3.220783 32.797661 1.039059
2004-01-05 08:06:19 51°13.153 2°50.913 5.59212 3.146019 31.940857 1.005349
2004-01-05 08:07:19 51°13.043 2°50.583 5.585187 3.227944 32.851391 0.97164
2004-01-05 08:08:20 51°12.933 2°50.245 5.585337 3.293871 33.600305 1.005349
2004-01-05 08:09:18 51°12.828 2°49.924 5.593577 3.299769 33.663573 0.904221
2004-01-05 08:10:19 51°12.717 2°49.588 5.602116 3.301244 33.681992 0.93793
2004-01-05 08:11:18 51°12.61 2°49.265 5.632347 3.309038 33.750225 0.904221
2004-01-05 08:12:18 51°12.504 2°48.938 5.674354 3.322519 33.860118 0.836802
2004-01-05 08:13:20 51°12.405 2°48.592 5.688351 3.330313 33.920371 0.701965
2004-01-05 08:14:20 51°12.31 2°48.256 5.69773 3.334947 33.96229 0.735674
2004-01-05 08:15:20 51°12.216 2°47.922 5.711069 3.339581 34.001578 0.701965
2004-01-05 08:16:20 51°12.12 2°47.588 5.737138 3.345269 34.046635 0.567127
2004-01-05 08:17:23 51°12.02 2°47.238 5.771612 3.352326 34.101004 0.567127
2004-01-05 08:18:42 51°11.893 2°46.798 5.774117 3.360225 34.162207 0.499708
2004-01-05 08:19:43 51°11.799 2°46.459 5.782682 3.362753 34.189862 0.465999
2004-01-05 08:20:42 51°11.709 2°46.131 5.769458 3.363385 34.198745 0.465999
2004-01-05 08:21:43 51°11.613 2°45.793 5.750469 3.361068 34.192721 0.39858
2004-01-05 08:22:46 51°11.522 2°45.442 5.809472 3.364965 34.206072 0.364871
2004-01-05 08:23:45 51°11.444 2°45.107 5.835 3.371601 34.246791 0.364871
2004-01-05 08:24:46 51°11.351 2°44.768 5.840304 3.373918 34.26329 0.364871
2004-01-05 08:25:46 51°11.26 2°44.436 5.821737 3.376446 34.282158 0.364871
2004-01-05 08:26:46 51°11.173 2°44.101 5.840655 3.375604 34.289302 0.331161
2004-01-05 08:27:46 51°11.091 2°43.767 5.883224 3.379922 34.304694 0.331161
2004-01-05 08:28:46 51°11.018 2°43.429 5.912621 3.383819 34.312699 0.331161
2004-01-05 08:29:50 51°10.94 2°43.071 5.941954 3.386452 34.307352 0.39858
2004-01-05 08:31:03 51°10.853 2°42.665 5.964182 3.387821 34.299165 0.432289
2004-01-05 08:32:09 51°10.776 2°42.298 5.986102 3.38919 34.290118 0.465999
2004-01-05 08:33:07 51°10.705 2°41.973 6.001777 3.389506 34.279716 0.533418
2004-01-05 08:34:09 51°10.633 2°41.627 6.020591 3.390665 34.273557 0.634546
2004-01-05 08:35:06 51°10.564 2°41.309 6.038452 3.39235 34.274186 0.701965
2004-01-05 08:36:09 51°10.489 2°40.958 6.06299 3.39414 34.269908 0.836802
2004-01-05 08:37:09 51°10.416 2°40.626 6.079393 3.395615 34.267312 0.735674
2004-01-05 08:38:07 51°10.347 2°40.301 6.08687 3.396563 34.268376 0.769383
2004-01-05 08:39:07 51°10.277 2°39.969 6.09335 3.397722 34.273538 0.735674
2004-01-05 08:40:14 51°10.201 2°39.597 6.110941 3.399301 34.279073 0.803093
2004-01-05 08:41:14 51°10.13 2°39.263 6.124243 3.401092 34.283491 0.836802
2004-01-05 08:42:12 51°10.065 2°38.943 6.14078 3.398037 34.233693 0.803093
2004-01-05 08:43:14 51°9.994 2°38.598 6.150092 3.404779 34.296971 0.904221
2004-01-05 08:44:13 51°9.928 2°38.271 6.154624 3.405832 34.300077 1.005349
2004-01-05 08:45:14 51°9.859 2°37.934 6.139385 3.4052 34.298214 1.005349
2004-01-05 08:46:31 51°9.774 2°37.511 5.932011 3.384028 34.166963 0.769383
2004-01-05 08:47:32 51°9.707 2°37.176 5.805166 3.350744 33.956188 0.600836
2004-01-05 08:48:32 51°9.64 2°36.848 5.741949 3.333472 33.866547 0.567127
2004-01-05 08:49:41 51°9.567 2°36.468 5.723553 3.329154 33.859475 0.600836
2004-01-05 08:50:41 51°9.504 2°36.139 5.723553 3.32947 33.868249 0.668255
2004-01-05 08:51:55 51°9.422 2°35.791 5.755079 3.333156 33.882934 0.634546
2004-01-05 08:52:57 51°9.368 2°35.591 5.774518 3.336526 33.909663 0.735674
2004-01-05 08:53:57 51°9.343 2°35.486 5.78739 3.342846 33.960944 0.769383
2004-01-05 08:54:57 51°9.348 2°35.461 5.805467 3.346743 33.993577 0.803093
2004-01-05 08:56:27 51°9.377 2°35.431 5.831847 3.350745 34.018684 0.735674
2004-01-05 08:57:42 51°9.403 2°35.406 5.849861 3.353799 34.027878 0.836802
2004-01-05 08:58:43 51°9.424 2°35.388 5.861618 3.355485 34.032079 0.735674
2004-01-05 08:59:43 51°9.446 2°35.373 5.875973 3.357064 34.040305 0.836802
2004-01-05 09:00:42 51°9.47 2°35.361 5.875973 3.358855 34.050029 0.735674
2004-01-05 09:01:43 51°9.498 2°35.349 5.883824 3.358855 34.048291 0.701965
2004-01-05 09:02:43 51°9.525 2°35.34 5.890924 3.360224 34.053272 0.769383
2004-01-05 09:03:43 51°9.552 2°35.331 5.898724 3.360856 34.052564 0.701965
2004-01-05 09:04:42 51°9.58 2°35.323 5.901573 3.361488 34.05533 0.701965
2004-01-05 09:05:42 51°9.608 2°35.315 5.91462 3.362225 34.056675 0.769383
2004-01-05 09:06:42 51°9.636 2°35.309 5.925065 3.3637 34.061968 0.735674
2004-01-05 09:07:43 51°9.666 2°35.305 5.941554 3.365701 34.071441 0.735674
2004-01-05 09:08:42 51°9.695 2°35.303 5.962683 3.368545 34.083434 0.701965
2004-01-05 09:09:42 51°9.723 2°35.301 5.980111 3.371705 34.094628 0.769383
2004-01-05 09:10:43 51°9.752 2°35.299 5.990995 3.373074 34.10653 0.701965
2004-01-05 09:11:43 51°9.783 2°35.297 5.998083 3.37518 34.11456 0.701965
2004-01-05 09:12:43 51°9.837 2°35.269 6.002625 3.376128 34.117392 0.668255
2004-01-05 09:13:42 51°10.012 2°35.197 6.25055 3.378972 34.125884 1.039059
2004-01-05 09:14:42 51°10.237 2°35.329 6.432401 3.425212 34.2975 1.5447
2004-01-05 09:15:42 51°10.457 2°35.511 6.457927 3.435219 34.341542 1.679537
2004-01-05 09:16:42 51°10.676 2°35.697 6.446578 3.438485 34.36575 1.814375
2004-01-05 09:17:43 51°10.896 2°35.897 6.414651 3.439117 34.392593 1.746956
2004-01-05 09:18:42 51°11.103 2°36.104 6.373926 3.438486 34.420962 1.713247
2004-01-05 09:19:43 51°11.314 2°36.325 6.327415 3.436274 34.437862 1.713247
2004-01-05 09:20:43 51°11.521 2°36.542 6.275254 3.43343 34.451232 1.612118
2004-01-05 09:21:43 51°11.728 2°36.757 6.229467 3.429217 34.458919 1.612118
2004-01-05 09:22:43 51°11.937 2°36.971 6.195788 3.425741 34.462701 1.645828
2004-01-05 09:23:42 51°12.141 2°37.182 6.182899 3.423213 34.456202 1.5447
2004-01-05 09:24:43 51°12.35 2°37.4 6.175732 3.421633 34.44811 1.5447
2004-01-05 09:25:42 51°12.553 2°37.613 6.170953 3.421633 34.453335 1.376153
2004-01-05 09:26:43 51°12.76 2°37.844 6.15776 3.42058 34.446778 1.275024
2004-01-05 09:27:42 51°12.957 2°38.073 6.140381 3.419316 34.45093 1.173896
2004-01-05 09:28:43 51°13.163 2°38.308 6.120407 3.418157 34.452779 1.140187
2004-01-05 09:29:43 51°13.362 2°38.54 6.102569 3.416156 34.453917 1.072768
2004-01-05 09:30:43 51°13.565 2°38.765 6.16931 3.417104 34.463666 1.072768
2004-01-05 09:31:42 51°13.77 2°38.967 6.56438 3.441541 34.523418 1.072768
2004-01-05 09:32:43 51°13.998 2°39.075 6.693469 3.47862 34.595098 1.173896
2004-01-05 09:33:42 51°14.199 2°38.951 6.609087 3.478621 34.623543 1.275024
2004-01-05 09:34:43 51°14.272 2°38.639 6.618578 3.47209 34.603029 1.342443
2004-01-05 09:35:43 51°14.216 2°38.323 6.77054 3.46798 34.477512 1.51099
2004-01-05 09:36:42 51°14.122 2°38.033 6.872927 3.485361 34.499621 1.275024
2004-01-05 09:37:43 51°14.032 2°37.732 6.76265 3.490945 34.557638 1.275024
2004-01-05 09:38:43 51°13.943 2°37.433 6.554485 3.470719 34.517228 1.207606
2004-01-05 09:39:42 51°13.857 2°37.142 6.507165 3.454918 34.482613 1.072768
2004-01-05 09:40:42 51°13.772 2°36.846 6.588369 3.45692 34.478082 1.173896
2004-01-05 09:41:43 51°13.684 2°36.546 6.813279 3.470086 34.446773 1.173896
2004-01-05 09:42:43 51°13.598 2°36.251 6.872189 3.488416 34.530672 1.241315
2004-01-05 09:43:42 51°13.513 2°35.958 6.927798 3.493789 34.535075 1.275024
2004-01-05 09:44:42 51°13.426 2°35.661 6.990926 3.497791 34.516792 1.275024
2004-01-05 09:45:43 51°13.338 2°35.359 7.048297 3.507167 34.5617 1.241315
2004-01-05 09:46:42 51°13.252 2°35.066 7.084766 3.511592 34.565925 1.443571
2004-01-05 09:47:42 51°13.165 2°34.767 7.103998 3.516333 34.5838 1.308734
2004-01-05 09:48:43 51°13.077 2°34.462 7.112092 3.515911 34.563061 1.477281
2004-01-05 09:49:42 51°12.992 2°34.167 7.112239 3.5157 34.557364 1.308734
2004-01-05 09:50:42 51°12.904 2°33.869 7.107039 3.519282 34.596515 1.308734
2004-01-05 09:51:43 51°12.814 2°33.563 7.103949 3.516016 34.562515 1.173896
2004-01-05 09:52:43 51°12.727 2°33.261 7.108805 3.513593 34.539424 1.241315
2004-01-05 09:53:42 51°12.641 2°32.962 7.102625 3.514436 34.549484 1.207606
2004-01-05 09:54:43 51°12.555 2°32.653 7.096983 3.510222 34.505121 1.173896
2004-01-05 09:55:42 51°12.471 2°32.353 7.093696 3.512013 34.536568 1.207606
2004-01-05 09:56:43 51°12.384 2°32.046 7.090507 3.509906 34.519467 1.207606
2004-01-05 09:57:43 51°12.3 2°31.741 7.078828 3.508642 34.512427 1.275024
2004-01-05 09:58:43 51°12.219 2°31.437 7.067737 3.50664 34.498168 1.342443
2004-01-05 09:59:42 51°12.139 2°31.143 7.048101 3.501267 34.453805 1.443571
2004-01-05 10:00:42 51°12.059 2°30.844 7.083049 3.502847 34.46855 1.578409
2004-01-05 10:01:42 51°11.98 2°30.548 7.144602 3.504006 34.432128 1.645828
2004-01-05 10:02:42 51°11.901 2°30.251 7.18959 3.5098 34.443856 1.713247
2004-01-05 10:03:42 51°11.823 2°29.955 7.220543 3.510853 34.419078 1.578409
2004-01-05 10:04:43 51°11.742 2°29.657 7.248104 3.521178 34.499541 1.51099
2004-01-05 10:05:43 51°11.661 2°29.361 7.257843 3.524022 34.511119 1.578409
2004-01-05 10:06:42 51°11.579 2°29.071 7.252558 3.520124 34.467832 1.578409
2004-01-05 10:07:43 51°11.496 2°28.768 7.247957 3.523074 34.500794 1.612118
2004-01-05 10:08:43 51°11.412 2°28.473 7.244531 3.520335 34.481083 1.409862
2004-01-05 10:09:42 51°11.33 2°28.182 7.2483 3.525392 34.53363 1.376153
2004-01-05 10:10:42 51°11.244 2°27.887 7.250257 3.52634 34.54227 1.342443
2004-01-05 10:11:42 51°11.169 2°27.585 7.256522 3.526445 34.543417 1.308734
2004-01-05 10:12:42 51°11.14 2°27.262 7.256375 3.526761 34.541793 1.409862
2004-01-05 10:13:42 51°11.155 2°26.933 7.263911 3.527077 34.54017 1.477281
2004-01-05 10:14:43 51°11.178 2°26.597 7.268902 3.526761 34.530821 1.612118
2004-01-05 10:15:42 51°11.212 2°26.275 7.302359 3.526761 34.518169 1.679537
2004-01-05 10:16:42 51°11.298 2°25.976 7.372886 3.531923 34.520401 1.713247
2004-01-05 10:17:42 51°11.514 2°25.887 7.435967 3.539614 34.53328 1.746956
2004-01-05 10:18:42 51°11.753 2°25.847 7.452167 3.544354 34.542708 1.645828
2004-01-05 10:19:42 51°11.993 2°25.79 7.506201 3.545829 34.543588 1.612118
2004-01-05 10:20:42 51°12.232 2°25.716 7.61058 3.555627 34.562488 1.376153
2004-01-05 10:21:43 51°12.476 2°25.643 7.701134 3.568375 34.594805 1.477281
2004-01-05 10:22:43 51°12.716 2°25.566 7.759571 3.576593 34.617442 1.376153
2004-01-05 10:23:42 51°12.951 2°25.482 7.825425 3.585021 34.646466 1.308734
2004-01-05 10:24:42 51°13.141 2°25.42 7.746897 3.589025 34.671182 1.51099
2004-01-05 10:25:43 51°13.241 2°25.373 7.702009 3.579122 34.650516 1.645828
2004-01-05 10:26:42 51°13.288 2°25.372 7.687282 3.576593 34.644149 1.578409
2004-01-05 10:27:43 51°13.331 2°25.384 7.683053 3.574381 34.637844 1.5447
2004-01-05 10:28:42 51°13.373 2°25.394 7.688157 3.575118 34.632429 1.51099
2004-01-05 10:29:43 51°13.417 2°25.406 7.680816 3.57417 34.628889 1.409862
2004-01-05 10:30:43 51°13.462 2°25.423 7.650523 3.5728 34.630831 1.409862
2004-01-05 10:31:43 51°13.507 2°25.454 7.630189 3.56985 34.621579 1.51099
2004-01-05 10:32:43 51°13.551 2°25.502 7.62367 3.568691 34.621616 1.51099
2004-01-05 10:33:43 51°13.59 2°25.563 7.618901 3.567216 34.613222 1.376153
2004-01-05 10:34:43 51°13.627 2°25.633 7.614035 3.567006 34.619313 1.409862
2004-01-05 10:35:42 51°13.66 2°25.706 7.614083 3.567111 34.620451 1.51099
2004-01-05 10:36:42 51°13.69 2°25.784 7.613402 3.566795 34.616201 1.443571
2004-01-05 10:37:43 51°13.718 2°25.865 7.616711 3.565636 34.606198 1.443571
2004-01-05 10:38:42 51°13.744 2°25.945 7.621237 3.567532 34.619144 1.443571
2004-01-05 10:39:43 51°13.769 2°26.027 7.637584 3.568481 34.621014 1.477281
2004-01-05 10:40:43 51°13.793 2°26.108 7.647459 3.569745 34.620442 1.5447
2004-01-05 10:41:42 51°13.814 2°26.186 7.657332 3.571641 34.631705 1.342443
2004-01-05 10:42:43 51°13.836 2°26.261 7.685046 3.573643 34.637413 1.409862
2004-01-05 10:43:42 51°13.856 2°26.329 7.711047 3.576066 34.636802 1.443571
2004-01-05 10:44:43 51°13.89 2°26.494 7.751899 3.580807 34.652811 1.443571
2004-01-05 10:45:43 51°14.042 2°26.747 7.786853 3.584179 34.659069 1.578409
2004-01-05 10:46:42 51°14.232 2°27.016 7.809514 3.588498 34.664687 1.612118
2004-01-05 10:47:43 51°14.429 2°27.3 7.808738 3.589131 34.667317 1.51099
2004-01-05 10:48:42 51°14.619 2°27.579 7.807525 3.58913 34.663986 1.477281
2004-01-05 10:49:42 51°14.81 2°27.864 7.785154 3.588498 34.66552 1.477281
2004-01-05 10:50:43 51°15.007 2°28.155 7.75253 3.584179 34.660737 1.51099
2004-01-05 10:51:43 51°15.2 2°28.441 7.734124 3.581755 34.651339 1.443571
2004-01-05 10:52:43 51°15.396 2°28.724 7.746023 3.581334 34.652642 1.5447
2004-01-05 10:53:43 51°15.587 2°29.009 7.76331 3.581228 34.630663 1.443571
2004-01-05 10:54:42 51°15.74 2°29.238 7.771126 3.584495 34.652465 1.477281
2004-01-05 10:55:42 51°15.877 2°29.446 7.778941 3.5846 34.646932 1.376153
2004-01-05 10:56:42 51°16.011 2°29.651 7.75593 3.585232 34.652064 1.409862
2004-01-05 10:57:43 51°16.146 2°29.857 7.697003 3.580702 34.645002 1.376153
2004-01-05 10:58:42 51°16.277 2°30.056 7.615787 3.572589 34.631902 1.409862
2004-01-05 10:59:42 51°16.41 2°30.258 7.534711 3.563002 34.608714 1.376153
2004-01-05 11:00:43 51°16.544 2°30.465 7.472703 3.55489 34.589701 1.477281
2004-01-05 11:01:43 51°16.676 2°30.67 7.4326 3.549306 34.575384 1.376153
2004-01-05 11:02:43 51°16.809 2°30.873 7.39711 3.544565 34.56767 1.308734
2004-01-05 11:03:43 51°16.941 2°31.076 7.380702 3.542142 34.566604 1.51099
2004-01-05 11:04:43 51°17.074 2°31.279 7.379481 3.541089 34.56358 1.275024
2004-01-05 11:05:43 51°17.205 2°31.483 7.386709 3.542353 34.572256 1.275024
2004-01-05 11:06:43 51°17.338 2°31.686 7.397403 3.543301 34.580024 1.241315
2004-01-05 11:07:43 51°17.47 2°31.891 7.411514 3.545303 34.588285 1.308734
2004-01-05 11:08:46 51°17.608 2°32.105 7.423473 3.547937 34.600875 1.241315
2004-01-05 11:09:57 51°17.765 2°32.348 7.428256 3.549307 34.606477 1.173896
2004-01-05 11:10:57 51°17.898 2°32.551 7.436846 3.550044 34.610269 1.140187
2004-01-05 11:11:57 51°18.03 2°32.755 7.447922 3.551624 34.61647 1.106477
2004-01-05 11:12:57 51°18.162 2°32.957 7.462411 3.553626 34.628077 1.106477
2004-01-05 11:13:57 51°18.293 2°33.161 7.49216 3.556997 34.642748 1.173896
2004-01-05 11:14:57 51°18.424 2°33.363 7.517314 3.562055 34.669775 1.072768
2004-01-05 11:15:57 51°18.554 2°33.566 7.522334 3.564267 34.681958 1.039059
2004-01-05 11:16:57 51°18.684 2°33.771 7.525891 3.565848 34.693179 1.005349
2004-01-05 11:17:56 51°18.81 2°33.97 7.524478 3.56648 34.696657 1.039059
2004-01-05 11:18:57 51°18.94 2°34.175 7.52131 3.566691 34.704825 0.97164
2004-01-05 11:19:57 51°19.067 2°34.376 7.519995 3.566269 34.701945 0.97164
2004-01-05 11:20:57 51°19.195 2°34.578 7.520433 3.56648 34.705909 0.93793
2004-01-05 11:22:03 51°19.336 2°34.798 7.519702 3.566269 34.701104 0.93793
2004-01-05 11:23:09 51°19.474 2°35.021 7.516534 3.566164 34.70417 0.97164
2004-01-05 11:24:06 51°19.576 2°35.18 7.51205 3.565532 34.696485 0.97164
2004-01-05 11:25:09 51°19.661 2°35.292 7.509418 3.565321 34.697568 0.904221
2004-01-05 11:26:09 51°19.694 2°35.341 7.514341 3.565005 34.693305 0.904221
2004-01-05 11:27:46 51°19.746 2°35.445 7.511611 3.564899 34.694688 0.836802
2004-01-05 11:28:59 51°19.779 2°35.535 7.50971 3.56511 34.696128 0.93793
2004-01-05 11:30:01 51°19.802 2°35.615 7.513659 3.564899 34.694688 0.97164
2004-01-05 11:31:01 51°19.82 2°35.693 7.512537 3.565005 34.693305 0.93793
2004-01-05 11:32:01 51°19.836 2°35.769 7.513366 3.564899 34.692164 1.005349
2004-01-05 11:33:01 51°19.848 2°35.845 7.515413 3.565321 34.696727 1.005349
2004-01-05 11:34:00 51°19.859 2°35.919 7.516096 3.565216 34.693904 0.97164
2004-01-05 11:35:01 51°19.869 2°35.994 7.515608 3.565215 34.692222 0.97164
2004-01-05 11:36:00 51°19.878 2°36.067 7.51668 3.565426 34.69198 0.93793
2004-01-05 11:37:01 51°19.884 2°36.138 7.520043 3.564899 34.688801 0.93793
2004-01-05 11:38:01 51°19.89 2°36.206 7.518727 3.565321 34.691681 0.93793
2004-01-05 11:39:00 51°19.896 2°36.27 7.518727 3.565532 34.693962 0.904221
2004-01-05 11:40:01 51°19.902 2°36.338 7.520482 3.565005 34.687419 0.97164
2004-01-05 11:41:01 51°19.907 2°36.403 7.522188 3.565532 34.691439 0.93793
2004-01-05 11:42:01 51°19.914 2°36.468 7.523357 3.565321 34.689158 0.93793
2004-01-05 11:42:58 51°19.916 2°36.527 7.523942 3.565637 34.690057 1.005349
2004-01-05 11:44:00 51°19.906 2°36.712 7.521262 3.565426 34.691139 0.97164
2004-01-05 11:45:15 51°19.97 2°37.168 7.529497 3.565953 34.687593 1.005349
2004-01-05 11:46:14 51°20.01 2°37.556 7.522724 3.565531 34.683033 1.106477
2004-01-05 11:47:14 51°20.04 2°37.95 7.520969 3.564373 34.678055 1.106477
2004-01-05 11:48:14 51°20.069 2°38.346 7.506981 3.563003 34.669113 1.106477
2004-01-05 11:49:27 51°20.097 2°38.829 7.437529 3.558367 34.66011 1.072768
2004-01-05 11:50:26 51°20.119 2°39.216 7.380604 3.550782 34.65111 1.072768
2004-01-05 11:51:27 51°20.147 2°39.617 7.324997 3.544566 34.632517 1.072768
2004-01-05 11:52:26 51°20.177 2°40.004 7.295415 3.540247 34.6227 1.106477
2004-01-05 11:53:26 51°20.203 2°40.401 7.264889 3.537508 34.618243 1.106477
2004-01-05 11:54:26 51°20.231 2°40.8 7.248202 3.534979 34.619462 1.072768
2004-01-05 11:55:27 51°20.261 2°41.208 7.22774 3.53382 34.621222 1.039059
2004-01-05 11:56:26 51°20.281 2°41.601 7.218388 3.532872 34.626975 1.106477
2004-01-05 11:57:27 51°20.137 2°41.817 7.255739 3.53361 34.63332 1.072768
2004-01-05 11:58:26 51°20.001 2°41.608 7.199582 3.532346 34.641569 1.039059
2004-01-05 11:59:27 51°19.882 2°41.356 7.202325 3.531187 34.639103 1.106477
2004-01-05 12:00:27 51°19.794 2°41.249 7.210602 3.53203 34.636426 1.106477
2004-01-05 12:01:27 51°19.749 2°41.192 7.211484 3.532662 34.637386 1.106477
2004-01-05 12:02:27 51°19.696 2°41.214 7.226957 3.532767 34.637688 1.106477
2004-01-05 12:03:27 51°19.729 2°41.387 7.222208 3.532978 34.633206 1.140187
2004-01-05 12:04:26 51°19.833 2°41.673 7.230825 3.533821 34.637311 1.173896
2004-01-05 12:05:26 51°19.915 2°42.007 7.220494 3.534558 34.64535 1.173896
2004-01-05 12:06:27 51°19.984 2°42.394 7.22304 3.534453 34.647591 1.207606
2004-01-05 12:07:26 51°20.053 2°42.776 7.22774 3.534874 34.649643 1.140187
2004-01-05 12:08:26 51°20.125 2°43.162 7.241105 3.535822 34.649809 1.106477
2004-01-05 12:09:27 51°20.196 2°43.557 7.210357 3.535717 34.652898 1.072768
2004-01-05 12:10:26 51°20.239 2°43.95 7.152592 3.530976 34.646135 1.106477
2004-01-05 12:11:26 51°20.262 2°44.351 7.111307 3.524761 34.630053 1.173896
2004-01-05 12:12:27 51°20.295 2°44.76 7.046235 3.519809 34.626076 1.173896
2004-01-05 12:13:26 51°20.341 2°45.15 7.012643 3.515912 34.632791 1.207606
2004-01-05 12:14:27 51°20.367 2°45.426 6.994661 3.513489 34.633524 1.376153
2004-01-05 12:15:35 51°20.383 2°45.662 6.982424 3.512225 34.639289 1.409862
2004-01-05 12:16:38 51°20.408 2°45.844 6.96876 3.51075 34.63165 1.443571
2004-01-05 12:17:38 51°20.432 2°45.89 6.96173 3.510645 34.639886 1.376153
2004-01-05 12:18:38 51°20.447 2°45.97 6.960697 3.509907 34.639483 1.308734
2004-01-05 12:19:38 51°20.454 2°46.054 6.954846 3.509697 34.638879 1.241315
2004-01-05 12:20:38 51°20.459 2°46.126 6.957845 3.50917 34.634807 1.241315
2004-01-05 12:21:38 51°20.466 2°46.191 6.949339 3.509486 34.641693 1.173896
2004-01-05 12:22:38 51°20.474 2°46.25 6.949978 3.508854 34.639883 1.241315
2004-01-05 12:23:38 51°20.483 2°46.305 6.944422 3.508327 34.638374 1.207606
2004-01-05 12:25:19 51°20.5 2°46.398 6.934733 3.507906 34.641441 1.173896
2004-01-05 12:26:43 51°20.508 2°46.47 6.932323 3.507484 34.639379 1.207606
2004-01-05 12:27:43 51°20.51 2°46.518 6.926568 3.507168 34.639328 1.207606
2004-01-05 12:28:43 51°20.511 2°46.562 6.928191 3.506852 34.639278 1.140187
2004-01-05 12:29:44 51°20.511 2°46.607 6.917467 3.506536 34.638373 1.207606
2004-01-05 12:30:47 51°20.508 2°46.645 6.92278 3.506431 34.639781 1.207606
2004-01-05 12:31:47 51°20.505 2°46.672 6.921648 3.506326 34.63948 1.173896
2004-01-05 12:32:47 51°20.504 2°46.685 6.918943 3.506115 34.638021 1.207606
2004-01-05 12:33:47 51°20.511 2°46.683 6.9154 3.505799 34.639681 1.207606
2004-01-05 12:34:47 51°20.462 2°46.606 6.924994 3.505799 34.634549 1.173896
2004-01-05 12:35:47 51°20.289 2°46.712 6.927699 3.506852 34.640133 1.275024
2004-01-05 12:36:47 51°20.123 2°46.956 6.923567 3.506852 34.636713 1.477281
2004-01-05 12:37:47 51°19.965 2°47.22 6.91048 3.505694 34.638524 1.409862
2004-01-05 12:38:47 51°19.804 2°47.481 6.85589 3.503376 34.640441 1.308734
2004-01-05 12:39:48 51°19.647 2°47.76 6.807069 3.499584 34.642426 1.241315
2004-01-05 12:40:47 51°19.498 2°48.034 6.730536 3.494001 34.636715 1.207606
2004-01-05 12:41:48 51°19.342 2°48.312 6.539392 3.482308 34.632411 1.106477
2004-01-05 12:42:46 51°19.197 2°48.579 6.396599 3.461977 34.61632 1.072768
2004-01-05 12:43:48 51°19.051 2°48.875 6.318973 3.450811 34.588471 1.173896
2004-01-05 12:44:47 51°18.905 2°49.152 6.268644 3.444175 34.578003 1.275024
2004-01-05 12:45:48 51°18.756 2°49.44 6.223449 3.439962 34.574535 1.342443
2004-01-05 12:46:47 51°18.609 2°49.716 6.210316 3.437013 34.57211 1.376153
2004-01-05 12:47:48 51°18.459 2°50.004 6.237075 3.436275 34.562996 1.342443
2004-01-05 12:48:46 51°18.32 2°50.278 6.268694 3.438803 34.564209 1.241315
2004-01-05 12:49:47 51°18.178 2°50.559 6.283156 3.442701 34.576353 1.173896
2004-01-05 12:50:47 51°18.072 2°50.757 6.312616 3.445018 34.582179 1.173896
2004-01-05 12:51:46 51°18.039 2°50.805 6.340225 3.447757 34.582259 1.106477
2004-01-05 12:52:47 51°18.032 2°50.826 6.357649 3.449442 34.584517 0.97164
2004-01-05 12:53:48 51°18.01 2°50.833 6.361768 3.451022 34.587341 1.005349
2004-01-05 12:54:48 51°17.977 2°50.817 6.371544 3.451127 34.585038 0.97164
2004-01-05 12:55:47 51°17.949 2°50.786 6.36688 3.451022 34.585603 1.072768
2004-01-05 12:56:48 51°17.93 2°50.76 6.376258 3.451654 34.590034 1.039059
2004-01-05 12:57:46 51°17.924 2°50.73 6.373182 3.451549 34.587123 0.97164
2004-01-05 12:58:46 51°17.929 2°50.693 6.370651 3.451865 34.589773 1.005349
2004-01-05 12:59:46 51°17.943 2°50.655 6.36688 3.451443 34.588557 0.870512
2004-01-05 13:00:47 51°17.968 2°50.615 6.365044 3.451549 34.588861 0.803093
2004-01-05 13:01:46 51°18.004 2°50.586 6.364845 3.451233 34.586211 0.93793
2004-01-05 13:02:46 51°18.051 2°50.575 6.36152 3.450917 34.586168 0.836802
2004-01-05 13:03:48 51°18.102 2°50.593 6.357252 3.450601 34.586124 0.97164
2004-01-05 13:04:46 51°18.148 2°50.635 6.350551 3.449758 34.582822 1.005349
2004-01-05 13:05:46 51°18.185 2°50.696 6.345388 3.449442 34.584517 1.005349
2004-01-05 13:06:47 51°18.21 2°50.766 6.339034 3.448705 34.583258 1.005349
2004-01-05 13:07:54 51°18.224 2°50.843 6.342856 3.448705 34.581518 1.005349
2004-01-05 13:09:02 51°18.23 2°50.915 6.34653 3.448915 34.580388 1.005349
2004-01-05 13:10:04 51°18.171 2°51.088 6.357351 3.449653 34.582518 1.039059
2004-01-05 13:11:09 51°18.003 2°51.348 6.361768 3.451443 34.58595 1.140187
2004-01-05 13:12:08 51°17.832 2°51.57 6.295329 3.449969 34.589516 1.140187
2004-01-05 13:13:10 51°17.658 2°51.816 6.217529 3.441963 34.590782 1.106477
2004-01-05 13:14:09 51°17.493 2°52.053 6.189269 3.435749 34.574563 1.106477
2004-01-05 13:15:09 51°17.336 2°52.311 6.22121 3.433536 34.556812 1.106477
2004-01-05 13:16:10 51°17.182 2°52.581 6.167618 3.433536 34.532391 1.106477
2004-01-05 13:17:09 51°17.031 2°52.841 6.014853 3.417631 34.494904 1.51099
2004-01-05 13:18:09 51°16.877 2°53.103 5.937007 3.402779 34.435815 1.409862
2004-01-05 13:19:10 51°16.716 2°53.375 5.880073 3.392457 34.388919 1.173896
2004-01-05 13:20:07 51°16.572 2°53.626 5.78148 3.377921 34.30141 1.039059
2004-01-05 13:21:10 51°16.472 2°53.782 5.742451 3.363912 34.205565 1.005349
2004-01-05 13:22:09 51°16.436 2°53.82 5.731223 3.357276 34.157778 0.870512
2004-01-05 13:23:09 51°16.427 2°53.84 5.733028 3.354959 34.141231 0.836802
2004-01-05 13:24:09 51°16.414 2°53.849 5.735734 3.354327 34.128846 0.735674
2004-01-05 13:25:09 51°16.403 2°53.851 5.727965 3.353801 34.125521 0.701965
2004-01-05 13:26:07 51°16.394 2°53.843 5.723353 3.352747 34.117997 0.735674
2004-01-05 13:27:07 51°16.384 2°53.822 5.721598 3.352326 34.118485 0.769383
2004-01-05 13:28:09 51°16.38 2°53.785 5.725859 3.351799 34.114285 0.769383
2004-01-05 13:29:09 51°16.386 2°53.737 5.716885 3.351694 34.113095 0.735674
2004-01-05 13:30:08 51°16.404 2°53.686 5.716033 3.350957 34.110012 0.735674
2004-01-05 13:31:07 51°16.433 2°53.636 5.718339 3.351378 34.114772 0.701965
2004-01-05 13:32:07 51°16.469 2°53.591 5.718791 3.351589 34.121526 0.769383
2004-01-05 13:33:09 51°16.516 2°53.554 5.712874 3.352326 34.128107 0.735674
2004-01-05 13:34:08 51°16.568 2°53.536 5.712874 3.353169 34.139379 0.803093
2004-01-05 13:35:09 51°16.627 2°53.537 5.718139 3.355065 34.154675 0.735674
2004-01-05 13:36:10 51°16.682 2°53.56 5.716635 3.355802 34.165634 0.836802
2004-01-05 13:37:08 51°16.727 2°53.598 5.723854 3.357171 34.177603 0.870512
2004-01-05 13:38:06 51°16.764 2°53.647 5.729669 3.358646 34.188132 0.870512
2004-01-05 13:39:09 51°16.795 2°53.743 5.732025 3.359383 34.195587 0.93793
2004-01-05 13:40:06 51°16.746 2°53.922 5.738641 3.360647 34.20198 0.904221
2004-01-05 13:41:09 51°16.54 2°54.027 5.724406 3.359172 34.184445 0.97164
2004-01-05 13:42:09 51°16.328 2°54.128 5.719242 3.353274 34.130943 0.904221
2004-01-05 13:43:09 51°16.115 2°54.226 5.71478 3.349587 34.097165 1.072768
2004-01-05 13:44:07 51°15.908 2°54.317 5.718891 3.346954 34.062177 1.039059
2004-01-05 13:45:08 51°15.692 2°54.412 5.730271 3.343899 34.015472 0.836802
2004-01-05 13:46:14 51°15.457 2°54.52 5.743202 3.335579 33.93112 0.836802
2004-01-05 13:47:14 51°15.241 2°54.599 5.812926 3.354748 34.093423 0.904221
2004-01-05 13:48:14 51°15.021 2°54.614 5.859617 3.369073 34.203424 0.904221
2004-01-05 13:49:14 51°14.8 2°54.666 5.769558 3.370442 34.212738 0.870512
2004-01-05 13:50:14 51°14.59 2°54.786 6.089562 3.365702 34.186401 -0.916087
2004-01-05 13:51:35 51°14.37 2°55.053 6.213202 3.365176 34.173474 -0.916087
2004-01-05 13:52:48 51°14.238 2°55.28 6.384594 3.365176 34.168234 -0.882377
2004-01-05 13:54:38 51°14.075 2°55.46 6.647932 3.365807 34.16139 -0.882377
2004-01-05 13:55:40 51°13.983 2°55.523 6.759987 3.366334 34.151621 -0.916087